createdAt,value
2016-05-06T00:00:46.712Z,16.43
2016-05-06T00:01:46.730Z,16.46
2016-05-06T00:02:46.593Z,16.46
2016-05-06T00:03:46.768Z,16.47
2016-05-06T00:04:46.802Z,16.41
2016-05-06T00:05:46.819Z,16.42
2016-05-06T00:06:46.853Z,16.33
2016-05-06T00:07:46.887Z,16.36
2016-05-06T00:08:46.891Z,16.35
2016-05-06T00:09:46.924Z,16.41
2016-05-06T00:10:46.911Z,16.38
2016-05-06T00:11:46.976Z,16.39
2016-05-06T00:12:46.933Z,16.33
2016-05-06T00:13:46.857Z,16.33
2016-05-06T00:14:47.047Z,16.24
2016-05-06T00:15:47.081Z,16.24
2016-05-06T00:16:47.084Z,16.28
2016-05-06T00:17:47.117Z,16.26
2016-05-06T00:18:47.136Z,16.26
2016-05-06T00:19:47.154Z,16.31
2016-05-06T00:20:47.181Z,16.2
2016-05-06T00:21:47.200Z,16.13
2016-05-06T00:22:47.233Z,16.17
2016-05-06T00:23:47.299Z,16.15
2016-05-06T00:24:47.270Z,16.17
2016-05-06T00:25:47.679Z,16.15
2016-05-06T00:26:47.338Z,16.12
2016-05-06T00:27:47.357Z,16.12
2016-05-06T00:28:47.374Z,16.16
2016-05-06T00:29:47.409Z,16.1
2016-05-06T00:30:47.427Z,16.04
2016-05-06T00:31:47.445Z,16.1
2016-05-06T00:32:47.464Z,16.04
2016-05-06T00:33:47.498Z,16.09
2016-05-06T00:34:47.515Z,16.02
2016-05-06T00:35:47.551Z,16.02
2016-05-06T00:36:47.568Z,16.01
2016-05-06T00:37:47.586Z,16.04
2016-05-06T00:38:47.620Z,15.94
2016-05-06T00:39:47.670Z,16.01
2016-05-06T00:40:47.672Z,16.05
2016-05-06T00:41:47.691Z,15.98
2016-05-06T00:42:47.709Z,15.98
2016-05-06T00:43:47.744Z,15.92
2016-05-06T00:44:47.761Z,15.91
2016-05-06T00:45:47.780Z,15.97
2016-05-06T00:46:47.813Z,15.98
2016-05-06T00:47:47.832Z,15.88
2016-05-06T00:48:47.850Z,15.91
2016-05-06T00:49:47.869Z,15.97
2016-05-06T00:50:47.902Z,15.91
2016-05-06T00:51:47.936Z,15.92
2016-05-06T00:52:47.799Z,15.84
2016-05-06T00:53:47.958Z,15.9
2016-05-06T00:54:47.991Z,15.88
2016-05-06T00:55:47.994Z,15.82
2016-05-06T00:56:47.888Z,15.83
2016-05-06T00:57:48.093Z,15.8
2016-05-06T00:58:48.096Z,15.86
2016-05-06T00:59:47.957Z,15.77
2016-05-06T01:00:48.133Z,15.84
2016-05-06T01:01:48.167Z,15.76
2016-05-06T01:02:48.029Z,15.72
2016-05-06T01:03:48.203Z,15.73
2016-05-06T01:04:48.081Z,15.62
2016-05-06T01:05:48.256Z,15.65
2016-05-06T01:06:48.274Z,15.73
2016-05-06T01:07:48.308Z,15.59
2016-05-06T01:08:48.326Z,15.64
2016-05-06T01:09:48.360Z,15.65
2016-05-06T01:10:48.409Z,15.65
2016-05-06T01:11:48.397Z,15.59
2016-05-06T01:12:48.430Z,15.61
2016-05-06T01:13:48.293Z,15.67
2016-05-06T01:14:48.483Z,15.59
2016-05-06T01:15:48.486Z,15.67
2016-05-06T01:16:48.519Z,15.64
2016-05-06T01:17:48.553Z,15.55
2016-05-06T01:18:48.416Z,15.51
2016-05-06T01:19:48.591Z,15.52
2016-05-06T01:20:48.452Z,15.54
2016-05-06T01:21:48.641Z,15.52
2016-05-06T01:22:48.661Z,15.55
2016-05-06T01:23:48.679Z,15.58
2016-05-06T01:24:48.541Z,15.49
2016-05-06T01:25:48.746Z,15.46
2016-05-06T01:26:48.750Z,15.47
2016-05-06T01:27:48.768Z,15.44
2016-05-06T01:28:48.786Z,15.46
2016-05-06T01:29:48.663Z,15.42
2016-05-06T01:30:48.838Z,15.39
2016-05-06T01:31:48.873Z,15.37
2016-05-06T01:32:49.156Z,15.44
2016-05-06T01:33:48.909Z,15.36
2016-05-06T01:34:48.942Z,15.43
2016-05-06T01:35:48.962Z,15.37
2016-05-06T01:36:48.979Z,15.36
2016-05-06T01:37:48.997Z,15.33
2016-05-06T01:38:49.031Z,15.39
2016-05-06T01:39:49.035Z,15.33
2016-05-06T01:40:49.240Z,15.27
2016-05-06T01:41:48.930Z,15.31
2016-05-06T01:42:49.106Z,15.27
2016-05-06T01:43:48.967Z,15.31
2016-05-06T01:44:49.158Z,15.29
2016-05-06T01:45:49.035Z,15.27
2016-05-06T01:46:48.897Z,15.24
2016-05-06T01:47:49.228Z,15.22
2016-05-06T01:48:49.106Z,15.27
2016-05-06T01:49:49.280Z,15.18
2016-05-06T01:50:49.298Z,15.24
2016-05-06T01:51:49.161Z,15.18
2016-05-06T01:52:49.351Z,15.19
2016-05-06T01:53:49.213Z,15.15
2016-05-06T01:54:49.402Z,15.14
2016-05-06T01:55:49.547Z,15.1
2016-05-06T01:56:49.440Z,15.11
2016-05-06T01:57:49.474Z,15.19
2016-05-06T01:58:49.491Z,15.04
2016-05-06T01:59:49.354Z,15.11
2016-05-06T02:00:49.544Z,15.18
2016-05-06T02:01:49.562Z,15.15
2016-05-06T02:02:49.581Z,15.11
2016-05-06T02:03:49.598Z,15.1
2016-05-06T02:04:49.618Z,15.06
2016-05-06T02:05:49.651Z,15.04
2016-05-06T02:06:49.670Z,15.14
2016-05-06T02:07:49.531Z,15.04
2016-05-06T02:08:49.722Z,14.99
2016-05-06T02:09:49.740Z,15.02
2016-05-06T02:10:50.086Z,14.97
2016-05-06T02:11:49.776Z,15.09
2016-05-06T02:12:49.811Z,15.02
2016-05-06T02:13:49.829Z,15.06
2016-05-06T02:14:49.847Z,15
2016-05-06T02:15:49.881Z,15
2016-05-06T02:16:49.900Z,15
2016-05-06T02:17:49.622Z,15
2016-05-06T02:18:49.952Z,14.85
2016-05-06T02:19:49.970Z,15
2016-05-06T02:20:49.989Z,15
2016-05-06T02:21:50.022Z,15.02
2016-05-06T02:22:50.056Z,14.94
2016-05-06T02:23:50.047Z,14.94
2016-05-06T02:24:50.081Z,14.94
2016-05-06T02:25:49.990Z,14.86
2016-05-06T02:26:50.134Z,14.82
2016-05-06T02:27:50.151Z,14.82
2016-05-06T02:28:50.014Z,14.84
2016-05-06T02:29:50.188Z,14.73
2016-05-06T02:30:50.223Z,14.78
2016-05-06T02:31:50.241Z,14.72
2016-05-06T02:32:50.102Z,14.81
2016-05-06T02:33:50.136Z,14.88
2016-05-06T02:34:50.311Z,14.77
2016-05-06T02:35:50.330Z,14.84
2016-05-06T02:36:50.347Z,14.73
2016-05-06T02:37:50.383Z,14.79
2016-05-06T02:38:50.400Z,14.78
2016-05-06T02:39:50.263Z,14.72
2016-05-06T02:40:50.858Z,14.66
2016-05-06T02:41:50.470Z,14.69
2016-05-06T02:42:50.488Z,14.72
2016-05-06T02:43:50.524Z,14.7
2016-05-06T02:44:50.526Z,14.7
2016-05-06T02:45:50.559Z,14.59
2016-05-06T02:46:50.594Z,14.65
2016-05-06T02:47:50.596Z,14.73
2016-05-06T02:48:50.629Z,14.66
2016-05-06T02:49:50.648Z,14.65
2016-05-06T02:50:50.668Z,14.63
2016-05-06T02:51:50.685Z,14.65
2016-05-06T02:52:50.703Z,14.55
2016-05-06T02:53:50.738Z,14.58
2016-05-06T02:54:50.755Z,14.55
2016-05-06T02:55:50.837Z,14.55
2016-05-06T02:56:50.792Z,14.55
2016-05-06T02:57:50.826Z,14.53
2016-05-06T02:58:50.845Z,14.53
2016-05-06T02:59:50.879Z,14.5
2016-05-06T03:00:50.897Z,14.5
2016-05-06T03:01:50.914Z,14.53
2016-05-06T03:02:50.934Z,14.5
2016-05-06T03:03:50.952Z,14.48
2016-05-06T03:04:50.970Z,14.47
2016-05-06T03:05:51.003Z,14.45
2016-05-06T03:06:51.022Z,14.43
2016-05-06T03:07:51.041Z,14.45
2016-05-06T03:08:51.090Z,14.47
2016-05-06T03:09:51.093Z,14.44
2016-05-06T03:10:51.127Z,14.33
2016-05-06T03:11:51.145Z,14.47
2016-05-06T03:12:51.163Z,14.35
2016-05-06T03:13:51.182Z,14.33
2016-05-06T03:14:51.215Z,14.33
2016-05-06T03:15:51.235Z,14.32
2016-05-06T03:16:51.252Z,14.35
2016-05-06T03:17:51.271Z,14.33
2016-05-06T03:18:51.132Z,14.26
2016-05-06T03:19:51.323Z,14.33
2016-05-06T03:20:51.357Z,14.29
2016-05-06T03:21:51.375Z,14.37
2016-05-06T03:22:51.378Z,14.3
2016-05-06T03:23:51.412Z,14.29
2016-05-06T03:24:51.430Z,14.18
2016-05-06T03:25:51.464Z,14.29
2016-05-06T03:26:51.467Z,14.18
2016-05-06T03:27:51.485Z,14.22
2016-05-06T03:28:51.519Z,14.22
2016-05-06T03:29:51.537Z,14.2
2016-05-06T03:30:51.571Z,14.14
2016-05-06T03:31:51.589Z,14.23
2016-05-06T03:32:51.608Z,14.2
2016-05-06T03:33:51.626Z,14.22
2016-05-06T03:34:51.644Z,14.14
2016-05-06T03:35:51.506Z,14.17
2016-05-06T03:36:51.697Z,14.14
2016-05-06T03:37:51.731Z,14.12
2016-05-06T03:38:51.749Z,14.2
2016-05-06T03:39:51.611Z,14.22
2016-05-06T03:40:51.645Z,14.12
2016-05-06T03:41:51.875Z,14.18
2016-05-06T03:42:51.830Z,14.15
2016-05-06T03:43:51.846Z,14.07
2016-05-06T03:44:51.854Z,14.04
2016-05-06T03:45:51.888Z,14.17
2016-05-06T03:46:51.906Z,14.12
2016-05-06T03:47:51.800Z,14.17
2016-05-06T03:48:51.990Z,14.07
2016-05-06T03:49:51.977Z,14.05
2016-05-06T03:50:51.979Z,14.05
2016-05-06T03:51:52.013Z,14.05
2016-05-06T03:52:51.891Z,14.05
2016-05-06T03:53:52.049Z,14
2016-05-06T03:54:52.085Z,14.03
2016-05-06T03:55:52.102Z,14.03
2016-05-06T03:56:51.965Z,14.03
2016-05-06T03:57:52.139Z,13.97
2016-05-06T03:58:52.017Z,14.04
2016-05-06T03:59:52.191Z,14
2016-05-06T04:00:52.226Z,13.97
2016-05-06T04:01:52.071Z,13.99
2016-05-06T04:02:52.261Z,13.93
2016-05-06T04:03:52.281Z,13.96
2016-05-06T04:04:52.158Z,13.9
2016-05-06T04:05:52.316Z,13.97
2016-05-06T04:06:52.351Z,13.95
2016-05-06T04:07:52.370Z,13.93
2016-05-06T04:08:52.231Z,13.89
2016-05-06T04:09:52.421Z,13.93
2016-05-06T04:10:52.440Z,13.93
2016-05-06T04:11:52.301Z,13.89
2016-05-06T04:12:52.476Z,13.93
2016-05-06T04:13:52.494Z,13.96
2016-05-06T04:14:52.356Z,13.89
2016-05-06T04:15:52.547Z,13.87
2016-05-06T04:16:52.408Z,13.86
2016-05-06T04:17:52.583Z,13.87
2016-05-06T04:18:52.616Z,13.93
2016-05-06T04:19:52.636Z,13.93
2016-05-06T04:20:52.669Z,13.93
2016-05-06T04:21:52.516Z,13.9
2016-05-06T04:22:52.706Z,13.87
2016-05-06T04:23:52.568Z,13.95
2016-05-06T04:24:52.743Z,13.78
2016-05-06T04:25:52.760Z,13.93
2016-05-06T04:26:52.779Z,13.9
2016-05-06T04:27:52.798Z,13.92
2016-05-06T04:28:52.816Z,13.85
2016-05-06T04:29:52.850Z,13.81
2016-05-06T04:30:52.712Z,13.78
2016-05-06T04:31:52.887Z,13.87
2016-05-06T04:32:52.905Z,13.79
2016-05-06T04:33:52.939Z,13.79
2016-05-06T04:34:52.957Z,13.79
2016-05-06T04:35:52.820Z,13.86
2016-05-06T04:36:53.009Z,13.79
2016-05-06T04:37:53.012Z,13.77
2016-05-06T04:38:52.874Z,13.77
2016-05-06T04:39:53.064Z,13.79
2016-05-06T04:40:53.598Z,13.81
2016-05-06T04:41:53.133Z,13.78
2016-05-06T04:42:53.119Z,13.78
2016-05-06T04:43:53.153Z,13.77
2016-05-06T04:44:53.172Z,13.77
2016-05-06T04:45:53.189Z,13.77
2016-05-06T04:46:53.208Z,13.81
2016-05-06T04:47:53.227Z,13.77
2016-05-06T04:48:53.261Z,13.74
2016-05-06T04:49:53.279Z,13.78
2016-05-06T04:50:53.297Z,13.77
2016-05-06T04:51:53.315Z,13.77
2016-05-06T04:52:53.349Z,13.81
2016-05-06T04:53:53.368Z,13.77
2016-05-06T04:54:53.230Z,13.83
2016-05-06T04:55:53.326Z,13.79
2016-05-06T04:56:53.438Z,13.85
2016-05-06T04:57:53.472Z,13.89
2016-05-06T04:58:53.318Z,13.87
2016-05-06T04:59:53.509Z,13.77
2016-05-06T05:00:53.370Z,13.77
2016-05-06T05:01:53.546Z,13.89
2016-05-06T05:02:53.564Z,13.83
2016-05-06T05:03:53.597Z,13.83
2016-05-06T05:04:53.616Z,13.9
2016-05-06T05:05:53.634Z,13.81
2016-05-06T05:06:53.637Z,13.79
2016-05-06T05:07:53.670Z,13.79
2016-05-06T05:08:53.690Z,13.83
2016-05-06T05:09:53.723Z,13.92
2016-05-06T05:10:54.046Z,13.78
2016-05-06T05:11:53.829Z,13.81
2016-05-06T05:12:53.598Z,13.9
2016-05-06T05:13:53.976Z,13.9
2016-05-06T05:14:53.886Z,13.9
2016-05-06T05:15:54.093Z,13.85
2016-05-06T05:16:54.128Z,13.81
2016-05-06T05:17:54.164Z,13.87
2016-05-06T05:18:54.198Z,13.89
2016-05-06T05:19:54.233Z,13.87
2016-05-06T05:20:54.279Z,13.89
2016-05-06T05:21:54.304Z,13.92
2016-05-06T05:22:54.329Z,13.9
2016-05-06T05:23:54.352Z,13.93
2016-05-06T05:24:54.393Z,13.95
2016-05-06T05:25:54.259Z,13.92
2016-05-06T05:26:54.437Z,13.93
2016-05-06T05:27:54.456Z,13.95
2016-05-06T05:28:54.478Z,13.99
2016-05-06T05:29:54.513Z,13.99
2016-05-06T05:30:54.533Z,14
2016-05-06T05:31:54.552Z,14.03
2016-05-06T05:32:54.571Z,14
2016-05-06T05:33:54.450Z,14.03
2016-05-06T05:34:54.469Z,14.07
2016-05-06T05:35:54.645Z,14.08
2016-05-06T05:36:54.662Z,14.11
2016-05-06T05:37:54.682Z,14.14
2016-05-06T05:38:54.716Z,14.04
2016-05-06T05:39:54.578Z,14.08
2016-05-06T05:40:55.300Z,14.2
2016-05-06T05:41:54.772Z,14.2
2016-05-06T05:42:54.790Z,14.07
2016-05-06T05:43:54.824Z,14.17
2016-05-06T05:44:54.842Z,14.29
2016-05-06T05:45:54.704Z,14.12
2016-05-06T05:46:54.722Z,14.15
2016-05-06T05:47:54.757Z,14.22
2016-05-06T05:48:54.932Z,14.25
2016-05-06T05:49:54.793Z,14.29
2016-05-06T05:50:54.968Z,14.23
2016-05-06T05:51:54.829Z,14.2
2016-05-06T05:52:55.020Z,14.25
2016-05-06T05:53:55.038Z,14.29
2016-05-06T05:54:54.901Z,14.23
2016-05-06T05:55:55.075Z,14.26
2016-05-06T05:56:54.953Z,14.32
2016-05-06T05:57:55.127Z,14.32
2016-05-06T05:58:55.145Z,14.47
2016-05-06T05:59:55.164Z,14.48
2016-05-06T06:00:55.182Z,14.4
2016-05-06T06:01:55.200Z,14.41
2016-05-06T06:02:55.234Z,14.5
2016-05-06T06:03:55.097Z,14.45
2016-05-06T06:04:55.114Z,14.47
2016-05-06T06:05:55.289Z,14.51
2016-05-06T06:06:55.323Z,14.59
2016-05-06T06:07:55.342Z,14.66
2016-05-06T06:08:55.235Z,14.72
2016-05-06T06:09:55.409Z,14.73
2016-05-06T06:10:55.458Z,14.73
2016-05-06T06:11:55.133Z,14.81
2016-05-06T06:12:55.449Z,14.78
2016-05-06T06:13:55.499Z,14.85
2016-05-06T06:14:55.502Z,14.82
2016-05-06T06:15:55.550Z,14.99
2016-05-06T06:16:55.537Z,14.89
2016-05-06T06:17:55.588Z,14.92
2016-05-06T06:18:55.621Z,15.07
2016-05-06T06:19:55.593Z,15.11
2016-05-06T06:20:55.627Z,15.15
2016-05-06T06:21:55.660Z,15.11
2016-05-06T06:22:55.554Z,15.19
2016-05-06T06:23:55.681Z,15.18
2016-05-06T06:24:55.716Z,15.22
2016-05-06T06:25:56.249Z,15.27
2016-05-06T06:26:55.768Z,15.36
2016-05-06T06:27:55.614Z,15.31
2016-05-06T06:28:55.789Z,15.31
2016-05-06T06:29:55.822Z,15.36
2016-05-06T06:30:55.685Z,15.47
2016-05-06T06:31:55.875Z,15.52
2016-05-06T06:32:55.924Z,15.55
2016-05-06T06:33:55.928Z,15.51
2016-05-06T06:34:55.930Z,15.58
2016-05-06T06:35:55.963Z,15.62
2016-05-06T06:36:55.967Z,15.61
2016-05-06T06:37:55.984Z,15.75
2016-05-06T06:38:55.862Z,15.82
2016-05-06T06:39:55.897Z,15.82
2016-05-06T06:40:55.914Z,15.86
2016-05-06T06:41:56.089Z,16
2016-05-06T06:42:55.951Z,15.95
2016-05-06T06:43:56.125Z,16.01
2016-05-06T06:44:56.003Z,16.12
2016-05-06T06:45:56.178Z,16.16
2016-05-06T06:46:56.213Z,16.26
2016-05-06T06:47:56.215Z,16.26
2016-05-06T06:48:56.249Z,16.29
2016-05-06T06:49:56.266Z,16.36
2016-05-06T06:50:56.129Z,16.38
2016-05-06T06:51:56.304Z,16.43
2016-05-06T06:52:56.338Z,16.56
2016-05-06T06:53:56.356Z,16.57
2016-05-06T06:54:56.374Z,16.61
2016-05-06T06:55:57.282Z,16.72
2016-05-06T06:56:56.426Z,16.78
2016-05-06T06:57:56.445Z,16.78
2016-05-06T06:58:56.462Z,16.79
2016-05-06T06:59:56.482Z,16.91
2016-05-06T07:00:56.515Z,17.01
2016-05-06T07:01:56.549Z,16.97
2016-05-06T07:02:56.412Z,16.99
2016-05-06T07:03:56.586Z,17.05
2016-05-06T07:04:56.603Z,17.11
2016-05-06T07:05:56.466Z,17.15
2016-05-06T07:06:56.641Z,17.23
2016-05-06T07:07:59.675Z,17.38
2016-05-06T07:08:56.771Z,17.34
2016-05-06T07:09:56.556Z,17.34
2016-05-06T07:10:56.589Z,17.44
2016-05-06T07:11:56.763Z,17.56
2016-05-06T07:12:56.782Z,17.54
2016-05-06T07:13:56.816Z,17.65
2016-05-06T07:14:56.833Z,17.65
2016-05-06T07:15:56.868Z,17.74
2016-05-06T07:16:56.871Z,17.85
2016-05-06T07:17:56.905Z,17.87
2016-05-06T07:18:56.767Z,17.92
2016-05-06T07:19:56.957Z,18.01
2016-05-06T07:20:56.819Z,18.11
2016-05-06T07:21:57.009Z,18.16
2016-05-06T07:22:57.063Z,18.2
2016-05-06T07:23:56.941Z,18.37
2016-05-06T07:24:57.068Z,18.38
2016-05-06T07:25:57.087Z,18.37
2016-05-06T07:26:57.199Z,18.5
2016-05-06T07:27:57.140Z,18.5
2016-05-06T07:28:57.158Z,18.56
2016-05-06T07:29:57.020Z,18.68
2016-05-06T07:30:57.210Z,18.75
2016-05-06T07:31:57.073Z,18.84
2016-05-06T07:32:57.248Z,18.84
2016-05-06T07:33:57.265Z,18.83
2016-05-06T07:34:57.299Z,19.04
2016-05-06T07:35:57.177Z,19.02
2016-05-06T07:36:57.351Z,19.09
2016-05-06T07:37:57.213Z,19.24
2016-05-06T07:38:57.403Z,19.33
2016-05-06T07:39:57.406Z,19.3
2016-05-06T07:40:57.394Z,19.33
2016-05-06T07:41:57.318Z,19.31
2016-05-06T07:42:57.492Z,19.56
2016-05-06T07:43:57.370Z,19.52
2016-05-06T07:44:57.544Z,19.63
2016-05-06T07:45:57.563Z,19.58
2016-05-06T07:46:57.582Z,19.67
2016-05-06T07:47:57.615Z,19.82
2016-05-06T07:48:57.634Z,19.79
2016-05-06T07:49:57.652Z,19.84
2016-05-06T07:50:57.670Z,19.91
2016-05-06T07:51:57.704Z,20.03
2016-05-06T07:52:57.723Z,20.07
2016-05-06T07:53:57.756Z,20.1
2016-05-06T07:54:57.774Z,20.13
2016-05-06T07:55:58.137Z,20.32
2016-05-06T07:56:57.827Z,20.29
2016-05-06T07:57:57.845Z,20.41
2016-05-06T07:58:57.708Z,20.47
2016-05-06T07:59:57.898Z,20.51
2016-05-06T08:00:57.915Z,20.48
2016-05-06T08:01:57.950Z,20.52
2016-05-06T08:02:57.812Z,20.62
2016-05-06T08:03:58.002Z,20.77
2016-05-06T08:04:57.864Z,20.81
2016-05-06T08:05:58.039Z,20.8
2016-05-06T08:06:58.073Z,20.96
2016-05-06T08:07:58.091Z,20.96
2016-05-06T08:08:58.000Z,21.05
2016-05-06T08:09:57.987Z,21.12
2016-05-06T08:10:58.036Z,21.2
2016-05-06T08:11:58.195Z,21.24
2016-05-06T08:12:58.229Z,21.29
2016-05-06T08:13:58.092Z,21.4
2016-05-06T08:14:58.266Z,21.4
2016-05-06T08:15:58.503Z,21.51
2016-05-06T08:16:58.162Z,21.45
2016-05-06T08:17:58.352Z,21.58
2016-05-06T08:18:58.371Z,21.6
2016-05-06T08:19:58.388Z,21.7
2016-05-06T08:20:58.423Z,21.79
2016-05-06T08:21:58.441Z,21.8
2016-05-06T08:22:58.460Z,21.89
2016-05-06T08:23:58.493Z,21.96
2016-05-06T08:24:58.355Z,22.02
2016-05-06T08:25:58.999Z,21.99
2016-05-06T08:26:58.579Z,22.07
2016-05-06T08:27:58.442Z,22.15
2016-05-06T08:28:58.616Z,22.15
2016-05-06T08:29:58.650Z,22.26
2016-05-06T08:30:58.668Z,22.39
2016-05-06T08:31:58.921Z,22.33
2016-05-06T08:32:58.721Z,22.51
2016-05-06T08:33:58.754Z,22.53
2016-05-06T08:34:58.773Z,22.48
2016-05-06T08:35:58.823Z,22.59
2016-05-06T08:36:58.669Z,22.57
2016-05-06T08:37:58.859Z,22.69
2016-05-06T08:38:58.721Z,22.73
2016-05-06T08:39:58.912Z,22.8
2016-05-06T08:41:00.445Z,22.84
2016-05-06T08:41:58.964Z,22.93
2016-05-06T08:42:58.982Z,22.96
2016-05-06T08:43:59.000Z,23.02
2016-05-06T08:44:59.050Z,23.09
2016-05-06T08:45:59.052Z,23.17
2016-05-06T08:46:59.086Z,23.24
2016-05-06T08:47:59.105Z,23.36
2016-05-06T08:48:59.138Z,23.37
2016-05-06T08:49:59.172Z,23.4
2016-05-06T08:50:59.191Z,23.47
2016-05-06T08:51:59.224Z,23.51
2016-05-06T08:52:59.260Z,23.69
2016-05-06T08:53:59.262Z,23.66
2016-05-06T08:54:59.296Z,23.76
2016-05-06T08:55:59.501Z,23.76
2016-05-06T08:56:59.363Z,23.71
2016-05-06T08:57:59.382Z,23.91
2016-05-06T08:58:59.416Z,23.92
2016-05-06T08:59:59.434Z,23.98
2016-05-06T09:00:59.452Z,24.01
2016-05-06T09:01:59.517Z,24.03
2016-05-06T09:02:59.537Z,24.02
2016-05-06T09:03:59.554Z,24.17
2016-05-06T09:04:59.557Z,24.2
2016-05-06T09:05:59.606Z,24.26
2016-05-06T09:06:59.468Z,24.43
2016-05-06T09:07:59.658Z,24.45
2016-05-06T09:08:59.708Z,24.47
2016-05-06T09:09:59.555Z,24.43
2016-05-06T09:11:01.323Z,24.54
2016-05-06T09:12:00.232Z,24.61
2016-05-06T09:12:59.625Z,24.61
2016-05-06T09:13:59.831Z,24.73
2016-05-06T09:14:59.849Z,24.69
2016-05-06T09:15:59.852Z,24.8
2016-05-06T09:16:59.886Z,24.84
2016-05-06T09:17:59.920Z,24.98
2016-05-06T09:18:59.938Z,24.98
2016-05-06T09:19:59.972Z,25.07
2016-05-06T09:21:00.005Z,25.13
2016-05-06T09:21:59.869Z,25.16
2016-05-06T09:23:00.058Z,25.29
2016-05-06T09:23:59.920Z,25.25
2016-05-06T09:25:00.127Z,25.29
2016-05-06T09:26:00.145Z,25.36
2016-05-06T09:27:00.038Z,25.44
2016-05-06T09:28:00.197Z,25.48
2016-05-06T09:29:00.059Z,25.5
2016-05-06T09:30:00.312Z,25.62
2016-05-06T09:31:00.282Z,25.75
2016-05-06T09:32:00.301Z,25.68
2016-05-06T09:33:00.335Z,25.88
2016-05-06T09:34:00.370Z,25.77
2016-05-06T09:35:00.388Z,25.95
2016-05-06T09:36:00.421Z,25.95
2016-05-06T09:37:00.299Z,26.06
2016-05-06T09:38:00.490Z,26.06
2016-05-06T09:39:00.586Z,26.16
2016-05-06T09:40:00.542Z,26.23
2016-05-06T09:41:01.857Z,26.18
2016-05-06T09:42:00.594Z,26.26
2016-05-06T09:43:00.628Z,26.28
2016-05-06T09:44:00.647Z,26.31
2016-05-06T09:45:00.681Z,26.41
2016-05-06T09:46:00.698Z,26.47
2016-05-06T09:47:00.733Z,26.48
2016-05-06T09:48:00.767Z,26.53
2016-05-06T09:49:00.644Z,26.59
2016-05-06T09:50:00.818Z,26.68
2016-05-06T09:51:00.853Z,26.73
2016-05-06T09:52:00.886Z,26.74
2016-05-06T09:53:00.921Z,26.84
2016-05-06T09:54:00.939Z,26.85
2016-05-06T09:55:00.972Z,26.92
2016-05-06T09:56:01.007Z,26.96
2016-05-06T09:57:00.869Z,27
2016-05-06T09:58:01.043Z,27.03
2016-05-06T09:59:00.921Z,27.18
2016-05-06T10:00:01.110Z,27.21
2016-05-06T10:01:01.161Z,27.26
2016-05-06T10:02:01.023Z,27.29
2016-05-06T10:03:01.212Z,27.3
2016-05-06T10:04:01.232Z,27.45
2016-05-06T10:05:01.109Z,27.44
2016-05-06T10:06:01.298Z,27.49
2016-05-06T10:07:01.334Z,27.52
2016-05-06T10:08:01.351Z,27.55
2016-05-06T10:09:01.385Z,27.59
2016-05-06T10:10:01.404Z,27.59
2016-05-06T10:11:01.672Z,27.64
2016-05-06T10:12:01.800Z,27.67
2016-05-06T10:13:01.350Z,27.71
2016-05-06T10:14:01.524Z,27.74
2016-05-06T10:15:01.558Z,27.82
2016-05-06T10:16:01.576Z,27.8
2016-05-06T10:17:01.610Z,27.86
2016-05-06T10:18:01.675Z,27.87
2016-05-06T10:19:01.678Z,27.95
2016-05-06T10:20:01.711Z,28
2016-05-06T10:21:01.747Z,28.1
2016-05-06T10:22:01.764Z,28.17
2016-05-06T10:23:01.798Z,28.2
2016-05-06T10:24:01.675Z,28.2
2016-05-06T10:25:01.849Z,28.23
2016-05-06T10:26:01.760Z,28.27
2016-05-06T10:27:02.543Z,28.29
2016-05-06T10:28:01.952Z,28.38
2016-05-06T10:29:01.986Z,28.37
2016-05-06T10:30:02.020Z,28.42
2016-05-06T10:31:01.741Z,28.44
2016-05-06T10:32:02.088Z,28.51
2016-05-06T10:33:02.122Z,28.51
2016-05-06T10:34:02.124Z,28.52
2016-05-06T10:35:02.159Z,28.49
2016-05-06T10:36:02.192Z,28.51
2016-05-06T10:37:02.226Z,28.49
2016-05-06T10:38:01.948Z,28.62
2016-05-06T10:39:02.309Z,28.67
2016-05-06T10:40:02.312Z,28.63
2016-05-06T10:41:02.362Z,28.75
2016-05-06T10:42:02.459Z,28.76
2016-05-06T10:43:02.414Z,28.78
2016-05-06T10:44:02.448Z,28.76
2016-05-06T10:45:02.482Z,28.84
2016-05-06T10:46:02.500Z,28.86
2016-05-06T10:47:02.550Z,28.91
2016-05-06T10:48:02.584Z,28.93
2016-05-06T10:49:02.446Z,28.97
2016-05-06T10:50:02.653Z,28.97
2016-05-06T10:51:02.670Z,29.02
2016-05-06T10:52:02.704Z,29.02
2016-05-06T10:53:02.722Z,29.1
2016-05-06T10:54:02.772Z,29.13
2016-05-06T10:55:02.791Z,29.14
2016-05-06T10:56:02.809Z,29.2
2016-05-06T10:57:02.858Z,29.2
2016-05-06T10:58:02.892Z,29.32
2016-05-06T10:59:02.926Z,29.27
2016-05-06T11:00:02.945Z,29.31
2016-05-06T11:01:02.978Z,29.29
2016-05-06T11:02:03.013Z,29.36
2016-05-06T11:03:03.030Z,29.38
2016-05-06T11:04:03.065Z,29.5
2016-05-06T11:05:03.098Z,29.47
2016-05-06T11:06:03.148Z,29.53
2016-05-06T11:07:03.026Z,29.5
2016-05-06T11:08:03.060Z,29.57
2016-05-06T11:09:03.093Z,29.56
2016-05-06T11:10:03.284Z,29.54
2016-05-06T11:11:03.302Z,29.56
2016-05-06T11:12:03.352Z,29.54
2016-05-06T11:13:03.370Z,29.57
2016-05-06T11:14:03.232Z,29.66
2016-05-06T11:15:03.438Z,29.69
2016-05-06T11:16:03.472Z,29.78
2016-05-06T11:17:03.522Z,29.78
2016-05-06T11:18:03.525Z,29.82
2016-05-06T11:19:03.542Z,29.94
2016-05-06T11:20:03.592Z,29.93
2016-05-06T11:21:03.626Z,29.97
2016-05-06T11:22:03.332Z,30
2016-05-06T11:23:03.694Z,30.06
2016-05-06T11:24:03.711Z,30.16
2016-05-06T11:25:03.747Z,30.03
2016-05-06T11:26:03.889Z,30.15
2016-05-06T11:27:03.814Z,30.18
2016-05-06T11:28:03.848Z,30.15
2016-05-06T11:29:03.882Z,30.27
2016-05-06T11:30:03.916Z,30.23
2016-05-06T11:31:03.950Z,30.27
2016-05-06T11:32:03.968Z,30.25
2016-05-06T11:33:04.002Z,30.28
2016-05-06T11:34:03.880Z,30.3
2016-05-06T11:35:03.945Z,30.25
2016-05-06T11:36:04.105Z,30.25
2016-05-06T11:37:04.138Z,30.39
2016-05-06T11:38:04.187Z,30.31
2016-05-06T11:39:03.894Z,30.34
2016-05-06T11:40:04.255Z,30.4
2016-05-06T11:41:04.274Z,30.46
2016-05-06T11:42:04.307Z,30.48
2016-05-06T11:43:04.982Z,30.53
2016-05-06T11:44:04.391Z,30.57
2016-05-06T11:45:04.237Z,30.63
2016-05-06T11:46:04.443Z,30.59
2016-05-06T11:47:04.321Z,30.62
2016-05-06T11:48:04.495Z,30.65
2016-05-06T11:49:04.217Z,30.62
2016-05-06T11:50:04.564Z,30.66
2016-05-06T11:51:04.598Z,30.62
2016-05-06T11:52:04.631Z,30.87
2016-05-06T11:53:04.509Z,30.85
2016-05-06T11:54:04.700Z,30.87
2016-05-06T11:55:04.733Z,30.92
2016-05-06T11:56:04.767Z,30.99
2016-05-06T11:57:04.644Z,31.02
2016-05-06T11:58:04.820Z,31.02
2016-05-06T11:59:05.041Z,31.02
2016-05-06T12:00:04.730Z,30.96
2016-05-06T12:01:04.922Z,31
2016-05-06T12:02:04.971Z,30.94
2016-05-06T12:03:04.989Z,30.97
2016-05-06T12:04:05.038Z,31.02
2016-05-06T12:05:04.917Z,31
2016-05-06T12:06:05.122Z,31
2016-05-06T12:07:05.124Z,31.14
2016-05-06T12:08:05.175Z,31.18
2016-05-06T12:09:05.193Z,31.17
2016-05-06T12:10:05.227Z,31.2
2016-05-06T12:11:05.479Z,31.25
2016-05-06T12:12:07.857Z,31.33
2016-05-06T12:13:05.329Z,31.31
2016-05-06T12:14:05.378Z,31.39
2016-05-06T12:15:05.443Z,31.44
2016-05-06T12:16:05.430Z,31.28
2016-05-06T12:17:05.480Z,31.42
2016-05-06T12:18:05.498Z,31.43
2016-05-06T12:19:05.548Z,31.43
2016-05-06T12:20:05.567Z,31.43
2016-05-06T12:21:05.600Z,31.39
2016-05-06T12:22:05.478Z,31.39
2016-05-06T12:23:05.512Z,31.42
2016-05-06T12:24:05.702Z,31.42
2016-05-06T12:25:05.595Z,31.34
2016-05-06T12:26:05.629Z,31.33
2016-05-06T12:27:05.851Z,31.33
2016-05-06T12:28:05.838Z,31.39
2016-05-06T12:29:05.871Z,31.42
2016-05-06T12:30:05.906Z,31.37
2016-05-06T12:31:05.939Z,31.29
2016-05-06T12:32:05.974Z,31.27
2016-05-06T12:33:05.992Z,31.28
2016-05-06T12:34:06.041Z,31.28
2016-05-06T12:35:06.216Z,31.31
2016-05-06T12:36:06.124Z,31.4
2016-05-06T12:37:06.144Z,31.37
2016-05-06T12:38:06.177Z,31.39
2016-05-06T12:39:06.210Z,31.42
2016-05-06T12:40:06.371Z,31.37
2016-05-06T12:41:07.857Z,31.37
2016-05-06T12:42:06.984Z,31.4
2016-05-06T12:43:06.550Z,31.34
2016-05-06T12:44:06.396Z,31.33
2016-05-06T12:45:06.524Z,31.24
2016-05-06T12:46:06.557Z,31.21
2016-05-06T12:47:06.560Z,31.07
2016-05-06T12:48:06.407Z,31
2016-05-06T12:49:06.566Z,31.03
2016-05-06T12:50:06.585Z,31.03
2016-05-06T12:51:06.759Z,31.12
2016-05-06T12:52:06.746Z,31.06
2016-05-06T12:53:06.748Z,31.02
2016-05-06T12:54:06.751Z,31.03
2016-05-06T12:55:16.723Z,30.99
2016-05-06T12:56:07.256Z,30.92
2016-05-06T12:57:06.837Z,31.02